createdAt,value
2023-05-02T00:04:22.589Z,96
2023-05-02T00:09:21.689Z,96
2023-05-02T00:14:22.758Z,96
2023-05-02T00:19:21.342Z,96
2023-05-02T00:24:21.367Z,96
2023-05-02T00:29:18.769Z,96
2023-05-02T00:34:18.649Z,96
2023-05-02T00:39:18.041Z,96
2023-05-02T00:44:17.418Z,95
2023-05-02T00:49:17.144Z,95
2023-05-02T00:54:16.651Z,95
2023-05-02T00:59:12.265Z,95
2023-05-02T01:04:12.857Z,95
2023-05-02T01:09:10.554Z,95
2023-05-02T01:14:10.280Z,95
2023-05-02T01:19:10.442Z,95
2023-05-02T01:23:58.523Z,95
2023-05-02T01:28:58.746Z,94
2023-05-02T01:33:58.226Z,94
2023-05-02T01:38:58.040Z,94
2023-05-02T01:43:55.728Z,94
2023-05-02T01:48:55.716Z,94
2023-05-02T01:53:56.573Z,94
2023-05-02T01:58:55.225Z,93
2023-05-02T02:03:55.695Z,93
2023-05-02T02:08:55.014Z,93
2023-05-02T02:13:56.201Z,93
2023-05-02T02:18:53.482Z,93
2023-05-02T02:23:52.574Z,93
2023-05-02T02:28:52.518Z,93
2023-05-02T02:33:51.866Z,93
2023-05-02T02:38:51.902Z,93
2023-05-02T02:43:51.480Z,93
2023-05-02T02:48:51.345Z,93
2023-05-02T02:53:48.864Z,93
2023-05-02T02:58:48.457Z,93
2023-05-02T03:00:51.648Z,93
2023-05-02T03:05:09.680Z,93
2023-05-02T03:10:08.359Z,93
2023-05-02T03:15:07.789Z,93
2023-05-02T03:20:06.830Z,93
2023-05-02T03:25:06.589Z,93
2023-05-02T03:30:07.582Z,93
2023-05-02T03:35:14.190Z,93
2023-05-02T03:40:14.203Z,93
2023-05-02T03:45:14.607Z,93
2023-05-02T03:50:12.998Z,93
2023-05-02T03:55:13.545Z,94
2023-05-02T04:00:10.843Z,94
2023-05-02T04:05:10.290Z,94
2023-05-02T04:10:12.064Z,94
2023-05-02T04:14:58.594Z,94
2023-05-02T04:19:58.516Z,94
2023-05-02T04:24:57.722Z,94
2023-05-02T04:29:57.585Z,94
2023-05-02T04:34:55.418Z,94
2023-05-02T04:39:55.080Z,94
2023-05-02T04:44:55.456Z,94
2023-05-02T04:49:55.058Z,94
2023-05-02T04:54:54.486Z,94
2023-05-02T04:59:09.431Z,94
2023-05-02T05:04:10.130Z,94
2023-05-02T05:09:09.297Z,93
2023-05-02T05:14:10.712Z,93
2023-05-02T05:19:07.173Z,93
2023-05-02T05:24:07.521Z,93
2023-05-02T05:29:06.446Z,92
2023-05-02T05:34:06.837Z,92
2023-05-02T05:39:14.900Z,91
2023-05-02T05:44:15.246Z,91
2023-05-02T05:49:15.045Z,91
2023-05-02T05:54:15.472Z,91
2023-05-02T05:59:15.083Z,91
2023-05-02T06:04:17.079Z,91
2023-05-02T06:09:14.148Z,90
2023-05-02T06:14:14.184Z,89
2023-05-02T06:19:14.622Z,88
2023-05-02T06:24:11.773Z,88
2023-05-02T06:29:11.381Z,88
2023-05-02T06:34:11.792Z,88
2023-05-02T06:39:09.916Z,87
2023-05-02T06:44:09.417Z,87
2023-05-02T06:49:09.406Z,87
2023-05-02T06:53:57.983Z,86
2023-05-02T06:58:57.534Z,86
2023-05-02T07:03:57.524Z,87
2023-05-02T07:08:57.090Z,87
2023-05-02T07:13:58.203Z,85
2023-05-02T07:18:55.670Z,84
2023-05-02T07:23:56.213Z,83
2023-05-02T07:28:57.217Z,80
2023-05-02T07:33:55.162Z,79
2023-05-02T07:38:54.537Z,78
2023-05-02T07:43:54.302Z,77
2023-05-02T07:48:53.878Z,76
2023-05-02T07:53:53.809Z,75
2023-05-02T07:58:53.753Z,77
2023-05-02T08:03:53.703Z,78
2023-05-02T08:08:54.622Z,79
2023-05-02T08:13:50.831Z,79
2023-05-02T08:18:50.760Z,77
2023-05-02T08:23:50.132Z,78
2023-05-02T08:28:50.850Z,75
2023-05-02T08:33:48.177Z,71
2023-05-02T08:38:47.721Z,72
2023-05-02T08:43:46.784Z,74
2023-05-02T08:48:48.651Z,75
2023-05-02T08:53:45.033Z,74
2023-05-02T08:58:45.239Z,74
2023-05-02T09:00:32.619Z,74
2023-05-02T09:05:11.895Z,74
2023-05-02T09:10:15.757Z,75
2023-05-02T09:15:16.953Z,74
2023-05-02T09:20:17.412Z,70
2023-05-02T09:25:14.407Z,71
2023-05-02T09:30:14.116Z,72
2023-05-02T09:35:15.017Z,66
2023-05-02T09:40:13.279Z,66
2023-05-02T09:45:13.858Z,67
2023-05-02T09:50:14.182Z,69
2023-05-02T09:55:13.169Z,67
2023-05-02T09:59:15.451Z,64
2023-05-02T10:04:15.111Z,67
2023-05-02T10:09:19.850Z,66
2023-05-02T10:14:13.894Z,63
2023-05-02T10:19:14.186Z,65
2023-05-02T10:24:13.238Z,64
2023-05-02T10:29:13.598Z,59
2023-05-02T10:34:13.887Z,60
2023-05-02T10:39:14.440Z,62
2023-05-02T10:44:11.311Z,65
2023-05-02T10:49:11.941Z,66
2023-05-02T10:54:10.841Z,67
2023-05-02T10:59:10.501Z,66
2023-05-02T11:04:10.118Z,67
2023-05-02T11:09:12.026Z,63
2023-05-02T11:14:09.346Z,61
2023-05-02T11:18:58.805Z,59
2023-05-02T11:23:58.456Z,62
2023-05-02T11:28:57.474Z,64
2023-05-02T11:33:57.124Z,64
2023-05-02T11:38:56.405Z,64
2023-05-02T11:43:56.461Z,65
2023-05-02T11:48:57.408Z,63
2023-05-02T11:53:54.623Z,60
2023-05-02T11:58:54.116Z,57
2023-05-02T12:03:56.844Z,55
2023-05-02T12:08:52.591Z,56
2023-05-02T12:13:52.602Z,57
2023-05-02T12:18:52.240Z,57
2023-05-02T12:23:51.488Z,54
2023-05-02T12:28:51.197Z,56
2023-05-02T12:33:51.129Z,57
2023-05-02T12:38:50.564Z,57
2023-05-02T12:43:51.733Z,56
2023-05-02T12:48:48.040Z,56
2023-05-02T12:53:47.966Z,53
2023-05-02T12:58:47.206Z,57
2023-05-02T13:03:47.198Z,55
2023-05-02T13:08:45.159Z,50
2023-05-02T13:13:44.500Z,50
2023-05-02T13:18:45.533Z,54
2023-05-02T13:23:45.181Z,53
2023-05-02T13:28:41.844Z,54
2023-05-02T13:33:41.318Z,54
2023-05-02T13:42:15.093Z,54
2023-05-02T13:48:13.116Z,53
2023-05-02T13:53:11.248Z,52
2023-05-02T13:58:11.610Z,52
2023-05-02T14:00:02.195Z,51
2023-05-02T14:04:34.341Z,50
2023-05-02T14:09:30.649Z,49
2023-05-02T14:14:30.367Z,48
2023-05-02T14:19:29.541Z,50
2023-05-02T14:24:29.032Z,49
2023-05-02T14:29:28.939Z,48
2023-05-02T14:34:28.317Z,46
2023-05-02T14:39:29.221Z,45
2023-05-02T14:44:27.963Z,48
2023-05-02T14:49:29.149Z,47
2023-05-02T14:54:25.572Z,48
2023-05-02T14:59:12.767Z,46
2023-05-02T15:04:17.170Z,47
2023-05-02T15:09:11.654Z,44
2023-05-02T15:14:11.614Z,45
2023-05-02T15:19:12.113Z,44
2023-05-02T15:24:10.662Z,45
2023-05-02T15:29:10.412Z,46
2023-05-02T15:34:12.140Z,42
2023-05-02T15:38:58.586Z,41
2023-05-02T15:43:58.485Z,40
2023-05-02T15:48:57.975Z,43
2023-05-02T15:58:55.194Z,42
2023-05-02T16:03:55.152Z,40
2023-05-02T16:08:53.834Z,41
2023-05-02T16:13:53.290Z,42
2023-05-02T16:18:52.652Z,42
2023-05-02T16:23:52.549Z,40
2023-05-02T16:28:52.514Z,42
2023-05-02T16:33:51.864Z,46
2023-05-02T16:38:53.232Z,48
2023-05-02T16:43:49.763Z,49
2023-05-02T16:48:49.027Z,48
2023-05-02T16:53:48.893Z,48
2023-05-02T16:58:48.284Z,49
2023-05-02T17:03:48.156Z,48
2023-05-02T17:09:40.502Z,45
2023-05-02T17:13:46.832Z,45
2023-05-02T17:18:45.637Z,46
2023-05-02T17:23:46.016Z,46
2023-05-02T17:28:45.793Z,47
2023-05-02T17:33:48.250Z,49
2023-05-02T17:38:42.620Z,49
2023-05-02T17:43:42.730Z,50
2023-05-02T17:48:42.185Z,50
2023-05-02T17:53:41.289Z,50
2023-05-02T17:58:40.560Z,52
2023-05-02T18:00:27.659Z,53
2023-05-02T18:05:12.750Z,54
2023-05-02T18:10:10.722Z,54
2023-05-02T18:15:10.644Z,54
2023-05-02T18:20:11.116Z,55
2023-05-02T18:24:58.785Z,56
2023-05-02T18:29:58.622Z,57
2023-05-02T18:34:58.075Z,58
2023-05-02T18:39:57.132Z,59
2023-05-02T18:44:56.830Z,60
2023-05-02T18:49:56.426Z,62
2023-05-02T18:54:55.664Z,62
2023-05-02T18:59:12.415Z,63
2023-05-02T19:04:12.712Z,64
2023-05-02T19:09:11.539Z,65
2023-05-02T19:14:10.920Z,67
2023-05-02T19:19:10.018Z,68
2023-05-02T19:24:09.744Z,69
2023-05-02T19:29:08.737Z,70
2023-05-02T19:34:08.333Z,70
2023-05-02T19:39:09.305Z,70
2023-05-02T19:44:05.940Z,69
2023-05-02T19:49:05.892Z,68
2023-05-02T19:54:05.992Z,67
2023-05-02T19:59:14.864Z,67
2023-05-02T20:04:14.817Z,67
2023-05-02T20:09:14.543Z,67
2023-05-02T20:14:14.969Z,67
2023-05-02T20:19:12.084Z,68
2023-05-02T20:24:12.187Z,68
2023-05-02T20:29:10.081Z,68
2023-05-02T20:34:11.281Z,68
2023-05-02T20:39:12.636Z,68
2023-05-02T20:44:09.942Z,68
2023-05-02T20:49:09.597Z,69
2023-05-02T20:53:58.744Z,69
2023-05-02T20:58:56.484Z,69
2023-05-02T21:03:56.308Z,70
2023-05-02T21:08:56.477Z,71
2023-05-02T21:13:55.761Z,71
2023-05-02T21:18:54.040Z,71
2023-05-02T21:23:53.957Z,71
2023-05-02T21:28:53.354Z,71
2023-05-02T21:33:53.195Z,71
2023-05-02T21:38:50.849Z,72
2023-05-02T21:43:50.619Z,72
2023-05-02T21:48:50.945Z,73
2023-05-02T21:53:50.060Z,74
2023-05-02T21:58:49.488Z,75
2023-05-02T22:03:49.135Z,76
2023-05-02T22:08:48.093Z,78
2023-05-02T22:13:48.189Z,79
2023-05-02T22:18:46.049Z,80
2023-05-02T22:23:44.928Z,81
2023-05-02T22:28:44.681Z,81
2023-05-02T22:33:46.039Z,81
2023-05-02T22:38:42.086Z,82
2023-05-02T22:43:42.008Z,83
2023-05-02T22:48:43.070Z,84
2023-05-02T22:53:41.510Z,84
2023-05-02T22:58:41.260Z,85
2023-05-02T23:00:27.632Z,85
2023-05-02T23:05:13.398Z,85
2023-05-02T23:10:11.699Z,86
2023-05-02T23:15:11.447Z,86
2023-05-02T23:20:11.860Z,86
2023-05-02T23:25:10.368Z,86
2023-05-02T23:30:11.203Z,86
2023-05-02T23:35:10.357Z,87
2023-05-02T23:40:11.393Z,87
2023-05-02T23:44:57.949Z,87
2023-05-02T23:49:56.926Z,88
2023-05-02T23:54:56.741Z,88
2023-05-02T23:59:12.293Z,88
